Centerton, AR (72719)

9:30 PM CDT on August 29, 2015 (GMT -0500)
APRSWXNET | | Change Station
CLOSE
Current Station
Personal Weather Station
Location: Centerton, AR
Elevation: 1305 ft
Nearby Weather Stations

Elev 1305 ft 36.37 °N, 94.29 °W | Updated 21 minutes ago

Rain
Rain
76 °F
Feels Like 76 °F
N
0
Wind Variable Wind from West
Gusts 3.0 mph

Today
High -- | Low -- °F
--% Chance of Precip.
Yesterday
High -- | Low -- °F
Precip. -- in
6:46 AM 7:49 PM
Full, 100% visible
Pressure 30.02 in
Visibility 10.0 miles
Clouds Few 2000 ft
Scattered Clouds 3500 ft
Mostly Cloudy 4100 ft
Heat Index 76 °F
Dew Point 72 °F
Humidity 86%
Rainfall in
Snow Depth Not available.
UV 0 out of 12
Pollen 9.30 out of 12
Air Quality Not available.
Flu Activity Not available.
METAR KVBT 300215Z AUTO 29004KT 10SM FEW020 SCT035 BKN041 24/21 A3002 RMK AO1 TSB0156E13
Pressure 30.02 in
Visibility 10.0 miles
Clouds Few 2000 ft
Scattered Clouds 3500 ft
Mostly Cloudy 4100 ft
Heat Index 76 °F
Dew Point 72 °F
Humidity 86%
Rainfall in
Snow Depth Not available.
UV 0 out of 12
Pollen 9.30 out of 12
Air Quality Not available.
Flu Activity Not available.
METAR KVBT 300215Z AUTO 29004KT 10SM FEW020 SCT035 BKN041 24/21 A3002 RMK AO1 TSB0156E13
Nowcast | as of 9:29 PM CDT on August 29, 2015

At 9:29 PM...National Weather Service Doppler radars continued to detect scattered rain showers with isolated thunderstorms affecting portions of northeast Oklahoma and northwest Arkansas...mainly between Coweta and Bentonville. All this activity was slowly moving toward the northeast...around 20 miles per hour. Through 11:00 PM...scattered showers and thunderstorms will remain possible...mainly across northeast Oklahoma and northwest Arkansas. Light to moderate rainfall can be expected...with less than a tenth of an inch per hour. A few of the thunderstorms could become stronger...with brief heavy rainfall and cloud to ground lightning. No severe weather is anticipated.

×

10-Day Weather Forecast

×

Almanac

Astronomy

Aug. 29, 2015 Rise Set
Actual Time
Civil Twilight
Nautical Twilight
Astronomical Twilight
Moon
Length of Visible Light
Length of Day
Tomorrow will be .
, % of the Moon is Illuminated

Today's Extremes

State Highs State Lows

Community

WunderPhotos

Upload Photos

1,850,852 photos uploaded!

WunderBlogs® & News

Nearby

Air Quality

  Air Quality AQ Index Pollutant
Not available.

Snow Depth

Station Depth Elevation

Earthquake Activity

City Distance Mag. Time & Date
Minimum magnitude displayed is 2.5.

Coastal Water Temperatures

Place Temperature

Stations

Nearby Weather Stations

Station Location Temp. Windchill Dew Point Humidity Wind Precip. Elev Updated Type